Apache Junction, AZ

5:57 AM MST on February 13, 2016 (GMT -0700)
Queen Valley | | Change Station
CLOSE
Current Station
Personal Weather Station
Location: Queen Valley, AZ
Elevation: 2028 ft
Nearby Weather Stations

Elev 2028 ft 33.30 °N, 111.29 °W | Updated 29 seconds ago

Clear
Clear
53.6 °F
Feels Like 53.6 °F
N
3.2
Wind Variable Wind from ENE

Today
High -- | Low -- °F
--% Chance of Precip.
Yesterday
High -- | Low -- °F
Precip. -- in
Pressure 30.09 in
Visibility 20.0 miles
Clouds Clear
Dew Point 26 °F
Humidity 34%
Rainfall 0.00 in
Snow Depth Not available.
7:11 AM 6:07 PM
Waxing Crescent, 30% visible
METAR KIWA 131247Z 13006KT 20SM SKC 09/M02 A3009
Pressure 30.09 in
Visibility 20.0 miles
Clouds Clear
Dew Point 26 °F
Humidity 34%
Rainfall 0.00 in
Snow Depth Not available.
7:11 AM 6:07 PM
Waxing Crescent, 30% visible
METAR KIWA 131247Z 13006KT 20SM SKC 09/M02 A3009

10-Day Weather Forecast

Almanac

Astronomy

Feb. 13, 2016 Rise Set
Actual Time
Civil Twilight
Nautical Twilight
Astronomical Twilight
Moon
Length of Visible Light
Length of Day
Tomorrow will be .
, % of the Moon is Illuminated

Today's Extremes

State Highs State Lows

Community

WunderPhotos

Upload Photos

1,892,543 photos uploaded!

WunderBlog® & News

Nearby

Air Quality

  Air Quality AQ Index Pollutant
Not available.

Snow Depth

Station Depth Elevation

Earthquake Activity

City Distance Mag. Time & Date
Minimum magnitude displayed is 2.5.

Coastal Water Temperatures

Place Temperature

Stations

Nearby Weather Stations

Station Location Temp. Windchill Dew Point Humidity Wind Precip. Elev Updated Type
                   

Watches & Warnings

There are currently no watches in effect.